sensor_id;sensor_type;location;lat;lon;timestamp;P1;durP1;ratioP1;P2;durP2;ratioP2
15553;SDS011;7878;44.632;10.942;2023-04-03T00:00:53;4.40;;;2.43;;
15553;SDS011;7878;44.632;10.942;2023-04-03T00:03:19;2.90;;;2.40;;
15553;SDS011;7878;44.632;10.942;2023-04-03T00:05:45;3.13;;;2.40;;
15553;SDS011;7878;44.632;10.942;2023-04-03T00:08:11;2.90;;;2.27;;
15553;SDS011;7878;44.632;10.942;2023-04-03T00:10:37;4.80;;;2.63;;
15553;SDS011;7878;44.632;10.942;2023-04-03T00:13:06;2.33;;;2.13;;
15553;SDS011;7878;44.632;10.942;2023-04-03T00:15:32;5.03;;;2.53;;
15553;SDS011;7878;44.632;10.942;2023-04-03T00:17:59;2.87;;;2.50;;
15553;SDS011;7878;44.632;10.942;2023-04-03T00:20:25;5.43;;;2.27;;
15553;SDS011;7878;44.632;10.942;2023-04-03T00:22:52;4.77;;;2.47;;
15553;SDS011;7878;44.632;10.942;2023-04-03T00:25:18;3.33;;;2.40;;
15553;SDS011;7878;44.632;10.942;2023-04-03T00:27:44;2.73;;;2.43;;
15553;SDS011;7878;44.632;10.942;2023-04-03T00:30:11;4.13;;;2.33;;
15553;SDS011;7878;44.632;10.942;2023-04-03T00:32:40;4.63;;;2.40;;
15553;SDS011;7878;44.632;10.942;2023-04-03T00:35:06;6.70;;;2.90;;
15553;SDS011;7878;44.632;10.942;2023-04-03T00:37:32;4.23;;;2.50;;
15553;SDS011;7878;44.632;10.942;2023-04-03T00:39:58;3.40;;;2.53;;
15553;SDS011;7878;44.632;10.942;2023-04-03T00:42:24;3.73;;;2.40;;
15553;SDS011;7878;44.632;10.942;2023-04-03T00:47:21;5.03;;;2.20;;
15553;SDS011;7878;44.632;10.942;2023-04-03T00:49:47;5.20;;;2.70;;
15553;SDS011;7878;44.632;10.942;2023-04-03T00:52:16;4.17;;;2.50;;
15553;SDS011;7878;44.632;10.942;2023-04-03T00:54:45;6.10;;;2.57;;
15553;SDS011;7878;44.632;10.942;2023-04-03T00:57:12;6.83;;;2.77;;
15553;SDS011;7878;44.632;10.942;2023-04-03T00:59:42;3.87;;;2.73;;
15553;SDS011;7878;44.632;10.942;2023-04-03T01:02:15;4.90;;;2.70;;
15553;SDS011;7878;44.632;10.942;2023-04-03T01:04:42;5.30;;;2.87;;
15553;SDS011;7878;44.632;10.942;2023-04-03T01:07:10;3.80;;;2.50;;
15553;SDS011;7878;44.632;10.942;2023-04-03T01:09:57;3.60;;;2.63;;
15553;SDS011;7878;44.632;10.942;2023-04-03T01:12:30;3.70;;;2.93;;
15553;SDS011;7878;44.632;10.942;2023-04-03T01:15:02;7.37;;;2.90;;
15553;SDS011;7878;44.632;10.942;2023-04-03T01:17:36;3.30;;;2.50;;
15553;SDS011;7878;44.632;10.942;2023-04-03T01:25:35;4.70;;;3.30;;
15553;SDS011;7878;44.632;10.942;2023-04-03T01:28:03;3.27;;;2.87;;
15553;SDS011;7878;44.632;10.942;2023-04-03T01:30:32;4.93;;;2.97;;
15553;SDS011;7878;44.632;10.942;2023-04-03T01:33:04;4.30;;;2.70;;
15553;SDS011;7878;44.632;10.942;2023-04-03T01:35:30;6.37;;;2.93;;
15553;SDS011;7878;44.632;10.942;2023-04-03T01:37:56;3.90;;;2.80;;
15553;SDS011;7878;44.632;10.942;2023-04-03T01:40:21;3.00;;;2.70;;
15553;SDS011;7878;44.632;10.942;2023-04-03T01:42:47;4.30;;;2.97;;
15553;SDS011;7878;44.632;10.942;2023-04-03T01:45:12;3.27;;;2.97;;
15553;SDS011;7878;44.632;10.942;2023-04-03T01:47:38;4.77;;;3.20;;
15553;SDS011;7878;44.632;10.942;2023-04-03T01:50:04;4.87;;;3.50;;
15553;SDS011;7878;44.632;10.942;2023-04-03T01:52:30;4.73;;;3.30;;
15553;SDS011;7878;44.632;10.942;2023-04-03T01:54:56;4.93;;;3.10;;
15553;SDS011;7878;44.632;10.942;2023-04-03T01:57:21;4.10;;;2.93;;
15553;SDS011;7878;44.632;10.942;2023-04-03T01:59:47;4.63;;;3.40;;
15553;SDS011;7878;44.632;10.942;2023-04-03T02:02:12;3.83;;;3.10;;
15553;SDS011;7878;44.632;10.942;2023-04-03T02:04:39;3.23;;;2.93;;
15553;SDS011;7878;44.632;10.942;2023-04-03T02:07:05;7.67;;;3.30;;
15553;SDS011;7878;44.632;10.942;2023-04-03T02:09:31;3.53;;;3.17;;
15553;SDS011;7878;44.632;10.942;2023-04-03T02:11:57;3.53;;;3.13;;
15553;SDS011;7878;44.632;10.942;2023-04-03T02:14:22;4.90;;;3.30;;
15553;SDS011;7878;44.632;10.942;2023-04-03T02:16:48;5.50;;;2.93;;
15553;SDS011;7878;44.632;10.942;2023-04-03T02:19:14;4.20;;;3.47;;
15553;SDS011;7878;44.632;10.942;2023-04-03T02:21:41;5.67;;;3.90;;
15553;SDS011;7878;44.632;10.942;2023-04-03T02:24:06;5.10;;;3.50;;
15553;SDS011;7878;44.632;10.942;2023-04-03T02:26:32;7.70;;;4.40;;
15553;SDS011;7878;44.632;10.942;2023-04-03T02:28:58;6.03;;;4.13;;
15553;SDS011;7878;44.632;10.942;2023-04-03T02:31:23;7.33;;;4.43;;
15553;SDS011;7878;44.632;10.942;2023-04-03T02:33:50;7.30;;;4.27;;
15553;SDS011;7878;44.632;10.942;2023-04-03T02:36:16;5.93;;;4.10;;
15553;SDS011;7878;44.632;10.942;2023-04-03T02:38:42;5.60;;;4.27;;
15553;SDS011;7878;44.632;10.942;2023-04-03T02:41:09;4.97;;;4.40;;
15553;SDS011;7878;44.632;10.942;2023-04-03T02:43:36;7.27;;;4.83;;
15553;SDS011;7878;44.632;10.942;2023-04-03T02:46:02;8.23;;;4.50;;
15553;SDS011;7878;44.632;10.942;2023-04-03T02:48:28;6.27;;;4.23;;
15553;SDS011;7878;44.632;10.942;2023-04-03T02:50:54;5.37;;;4.30;;
15553;SDS011;7878;44.632;10.942;2023-04-03T02:53:20;8.00;;;4.80;;
15553;SDS011;7878;44.632;10.942;2023-04-03T02:55:46;11.17;;;5.10;;
15553;SDS011;7878;44.632;10.942;2023-04-03T02:58:12;7.37;;;4.40;;
15553;SDS011;7878;44.632;10.942;2023-04-03T03:00:38;6.87;;;5.20;;
15553;SDS011;7878;44.632;10.942;2023-04-03T03:03:03;5.53;;;4.80;;
15553;SDS011;7878;44.632;10.942;2023-04-03T03:05:29;6.30;;;5.20;;
15553;SDS011;7878;44.632;10.942;2023-04-03T03:07:55;9.33;;;4.90;;
15553;SDS011;7878;44.632;10.942;2023-04-03T03:10:22;10.53;;;5.67;;
15553;SDS011;7878;44.632;10.942;2023-04-03T03:12:48;12.73;;;5.73;;
15553;SDS011;7878;44.632;10.942;2023-04-03T03:15:14;6.97;;;5.03;;
15553;SDS011;7878;44.632;10.942;2023-04-03T03:17:40;7.00;;;5.53;;
15553;SDS011;7878;44.632;10.942;2023-04-03T03:20:06;7.13;;;5.63;;
15553;SDS011;7878;44.632;10.942;2023-04-03T03:22:33;7.33;;;5.47;;
15553;SDS011;7878;44.632;10.942;2023-04-03T03:24:59;9.40;;;5.60;;
15553;SDS011;7878;44.632;10.942;2023-04-03T03:27:26;10.87;;;5.60;;
15553;SDS011;7878;44.632;10.942;2023-04-03T03:29:51;7.70;;;5.70;;
15553;SDS011;7878;44.632;10.942;2023-04-03T03:32:17;11.17;;;6.47;;
15553;SDS011;7878;44.632;10.942;2023-04-03T03:34:43;12.37;;;6.10;;
15553;SDS011;7878;44.632;10.942;2023-04-03T03:37:09;7.77;;;6.40;;
15553;SDS011;7878;44.632;10.942;2023-04-03T03:39:34;10.20;;;5.90;;
15553;SDS011;7878;44.632;10.942;2023-04-03T03:42:00;7.73;;;5.63;;
15553;SDS011;7878;44.632;10.942;2023-04-03T03:44:26;7.93;;;5.10;;
15553;SDS011;7878;44.632;10.942;2023-04-03T03:46:54;8.63;;;5.60;;
15553;SDS011;7878;44.632;10.942;2023-04-03T03:49:20;5.83;;;5.13;;
15553;SDS011;7878;44.632;10.942;2023-04-03T03:51:46;6.43;;;5.30;;
15553;SDS011;7878;44.632;10.942;2023-04-03T03:54:11;6.30;;;4.90;;
15553;SDS011;7878;44.632;10.942;2023-04-03T03:56:38;5.70;;;5.10;;
15553;SDS011;7878;44.632;10.942;2023-04-03T03:59:04;6.37;;;5.50;;
15553;SDS011;7878;44.632;10.942;2023-04-03T04:01:30;8.20;;;5.50;;
15553;SDS011;7878;44.632;10.942;2023-04-03T04:03:56;8.40;;;5.40;;
15553;SDS011;7878;44.632;10.942;2023-04-03T04:06:22;9.47;;;5.03;;
15553;SDS011;7878;44.632;10.942;2023-04-03T04:08:47;10.23;;;5.60;;
15553;SDS011;7878;44.632;10.942;2023-04-03T04:11:13;9.83;;;5.23;;
15553;SDS011;7878;44.632;10.942;2023-04-03T04:13:39;7.30;;;5.00;;
15553;SDS011;7878;44.632;10.942;2023-04-03T04:16:05;9.43;;;5.27;;
15553;SDS011;7878;44.632;10.942;2023-04-03T04:18:32;9.63;;;5.60;;
15553;SDS011;7878;44.632;10.942;2023-04-03T04:20:58;9.17;;;7.07;;
15553;SDS011;7878;44.632;10.942;2023-04-03T04:23:24;12.17;;;6.07;;
15553;SDS011;7878;44.632;10.942;2023-04-03T04:25:50;15.27;;;6.27;;
15553;SDS011;7878;44.632;10.942;2023-04-03T04:28:15;12.83;;;5.67;;
15553;SDS011;7878;44.632;10.942;2023-04-03T04:30:42;7.07;;;5.50;;
15553;SDS011;7878;44.632;10.942;2023-04-03T04:33:08;16.50;;;6.60;;
15553;SDS011;7878;44.632;10.942;2023-04-03T04:35:34;10.30;;;5.93;;
15553;SDS011;7878;44.632;10.942;2023-04-03T04:37:59;14.50;;;6.80;;
15553;SDS011;7878;44.632;10.942;2023-04-03T04:40:26;11.63;;;8.03;;
15553;SDS011;7878;44.632;10.942;2023-04-03T04:42:51;13.40;;;6.30;;
15553;SDS011;7878;44.632;10.942;2023-04-03T04:45:17;12.73;;;6.53;;
15553;SDS011;7878;44.632;10.942;2023-04-03T04:47:43;13.37;;;6.43;;
15553;SDS011;7878;44.632;10.942;2023-04-03T04:50:09;11.87;;;6.63;;
15553;SDS011;7878;44.632;10.942;2023-04-03T04:52:35;19.40;;;6.47;;
15553;SDS011;7878;44.632;10.942;2023-04-03T04:55:01;10.67;;;6.30;;
15553;SDS011;7878;44.632;10.942;2023-04-03T04:57:27;22.53;;;8.47;;
15553;SDS011;7878;44.632;10.942;2023-04-03T04:59:52;21.17;;;7.57;;
15553;SDS011;7878;44.632;10.942;2023-04-03T05:02:18;14.37;;;7.50;;
15553;SDS011;7878;44.632;10.942;2023-04-03T05:04:44;27.03;;;7.47;;
15553;SDS011;7878;44.632;10.942;2023-04-03T05:07:09;13.93;;;7.27;;
15553;SDS011;7878;44.632;10.942;2023-04-03T05:09:35;17.27;;;7.50;;
15553;SDS011;7878;44.632;10.942;2023-04-03T05:12:01;17.30;;;6.83;;
15553;SDS011;7878;44.632;10.942;2023-04-03T05:14:28;16.87;;;7.50;;
15553;SDS011;7878;44.632;10.942;2023-04-03T05:16:54;14.60;;;7.40;;
15553;SDS011;7878;44.632;10.942;2023-04-03T05:19:22;16.10;;;7.07;;
15553;SDS011;7878;44.632;10.942;2023-04-03T05:21:48;12.60;;;6.40;;
15553;SDS011;7878;44.632;10.942;2023-04-03T05:24:14;11.63;;;6.30;;
15553;SDS011;7878;44.632;10.942;2023-04-03T05:26:41;12.97;;;6.57;;
15553;SDS011;7878;44.632;10.942;2023-04-03T05:29:07;15.53;;;6.93;;
15553;SDS011;7878;44.632;10.942;2023-04-03T05:31:33;10.87;;;6.73;;
15553;SDS011;7878;44.632;10.942;2023-04-03T05:33:59;10.60;;;6.67;;
15553;SDS011;7878;44.632;10.942;2023-04-03T05:36:24;16.03;;;6.67;;
15553;SDS011;7878;44.632;10.942;2023-04-03T05:38:50;21.77;;;9.30;;
15553;SDS011;7878;44.632;10.942;2023-04-03T05:41:16;17.07;;;7.20;;
15553;SDS011;7878;44.632;10.942;2023-04-03T05:43:42;15.60;;;7.27;;
15553;SDS011;7878;44.632;10.942;2023-04-03T05:46:09;19.77;;;7.60;;
15553;SDS011;7878;44.632;10.942;2023-04-03T05:48:37;17.67;;;7.53;;
15553;SDS011;7878;44.632;10.942;2023-04-03T05:51:02;24.77;;;7.47;;
15553;SDS011;7878;44.632;10.942;2023-04-03T05:53:29;22.60;;;7.77;;
15553;SDS011;7878;44.632;10.942;2023-04-03T05:55:58;15.40;;;9.37;;
15553;SDS011;7878;44.632;10.942;2023-04-03T05:58:23;12.30;;;6.90;;
15553;SDS011;7878;44.632;10.942;2023-04-03T06:00:49;12.40;;;6.77;;
15553;SDS011;7878;44.632;10.942;2023-04-03T06:03:15;19.43;;;8.10;;
15553;SDS011;7878;44.632;10.942;2023-04-03T06:05:41;15.63;;;7.43;;
15553;SDS011;7878;44.632;10.942;2023-04-03T06:08:07;17.67;;;8.53;;
15553;SDS011;7878;44.632;10.942;2023-04-03T06:10:34;14.90;;;8.10;;
15553;SDS011;7878;44.632;10.942;2023-04-03T06:13:00;21.17;;;8.07;;
15553;SDS011;7878;44.632;10.942;2023-04-03T06:15:26;10.03;;;7.60;;
15553;SDS011;7878;44.632;10.942;2023-04-03T06:17:52;10.63;;;8.20;;
15553;SDS011;7878;44.632;10.942;2023-04-03T06:20:17;14.83;;;7.60;;
15553;SDS011;7878;44.632;10.942;2023-04-03T06:22:43;11.10;;;8.63;;
15553;SDS011;7878;44.632;10.942;2023-04-03T06:25:09;16.77;;;8.87;;
15553;SDS011;7878;44.632;10.942;2023-04-03T06:27:35;13.33;;;8.97;;
15553;SDS011;7878;44.632;10.942;2023-04-03T06:30:00;16.00;;;9.93;;
15553;SDS011;7878;44.632;10.942;2023-04-03T06:32:26;11.13;;;9.10;;
15553;SDS011;7878;44.632;10.942;2023-04-03T06:34:52;14.80;;;10.27;;
15553;SDS011;7878;44.632;10.942;2023-04-03T06:37:19;13.37;;;9.40;;
15553;SDS011;7878;44.632;10.942;2023-04-03T06:39:46;22.73;;;10.83;;
15553;SDS011;7878;44.632;10.942;2023-04-03T06:42:13;15.40;;;10.43;;
15553;SDS011;7878;44.632;10.942;2023-04-03T06:44:38;21.53;;;10.57;;
15553;SDS011;7878;44.632;10.942;2023-04-03T06:47:04;16.67;;;9.43;;
15553;SDS011;7878;44.632;10.942;2023-04-03T06:49:30;19.10;;;10.63;;
15553;SDS011;7878;44.632;10.942;2023-04-03T06:51:57;14.00;;;10.23;;
15553;SDS011;7878;44.632;10.942;2023-04-03T06:54:23;15.07;;;10.03;;
15553;SDS011;7878;44.632;10.942;2023-04-03T06:56:48;14.87;;;9.90;;
15553;SDS011;7878;44.632;10.942;2023-04-03T06:59:15;13.93;;;10.10;;
15553;SDS011;7878;44.632;10.942;2023-04-03T07:01:42;18.30;;;9.77;;
15553;SDS011;7878;44.632;10.942;2023-04-03T07:04:07;13.57;;;8.70;;
15553;SDS011;7878;44.632;10.942;2023-04-03T07:06:33;16.17;;;8.63;;
15553;SDS011;7878;44.632;10.942;2023-04-03T07:09:00;14.27;;;9.13;;
15553;SDS011;7878;44.632;10.942;2023-04-03T07:11:26;20.77;;;8.83;;
15553;SDS011;7878;44.632;10.942;2023-04-03T07:13:52;14.93;;;8.53;;
15553;SDS011;7878;44.632;10.942;2023-04-03T07:16:18;10.67;;;7.93;;
15553;SDS011;7878;44.632;10.942;2023-04-03T07:18:45;22.53;;;11.43;;
15553;SDS011;7878;44.632;10.942;2023-04-03T07:21:11;11.70;;;8.90;;
15553;SDS011;7878;44.632;10.942;2023-04-03T07:23:38;10.63;;;8.60;;
15553;SDS011;7878;44.632;10.942;2023-04-03T07:26:04;12.47;;;8.83;;
15553;SDS011;7878;44.632;10.942;2023-04-03T07:28:31;14.10;;;8.67;;
15553;SDS011;7878;44.632;10.942;2023-04-03T07:31:01;12.63;;;8.60;;
15553;SDS011;7878;44.632;10.942;2023-04-03T07:33:36;11.57;;;9.33;;
15553;SDS011;7878;44.632;10.942;2023-04-03T07:36:03;12.60;;;9.70;;
15553;SDS011;7878;44.632;10.942;2023-04-03T07:38:29;15.40;;;8.97;;
15553;SDS011;7878;44.632;10.942;2023-04-03T07:40:55;11.60;;;9.27;;
15553;SDS011;7878;44.632;10.942;2023-04-03T07:43:21;13.63;;;9.77;;
15553;SDS011;7878;44.632;10.942;2023-04-03T07:45:49;14.00;;;9.50;;
15553;SDS011;7878;44.632;10.942;2023-04-03T07:48:16;13.57;;;9.47;;
15553;SDS011;7878;44.632;10.942;2023-04-03T07:50:43;12.87;;;9.53;;
15553;SDS011;7878;44.632;10.942;2023-04-03T07:53:09;12.87;;;10.07;;
15553;SDS011;7878;44.632;10.942;2023-04-03T07:55:35;19.20;;;9.63;;
15553;SDS011;7878;44.632;10.942;2023-04-03T07:58:07;11.23;;;8.57;;
15553;SDS011;7878;44.632;10.942;2023-04-03T08:00:43;11.83;;;8.30;;
15553;SDS011;7878;44.632;10.942;2023-04-03T08:03:10;12.97;;;9.40;;
15553;SDS011;7878;44.632;10.942;2023-04-03T08:05:40;10.63;;;8.33;;
15553;SDS011;7878;44.632;10.942;2023-04-03T08:08:07;10.80;;;9.43;;
15553;SDS011;7878;44.632;10.942;2023-04-03T08:10:34;13.57;;;8.53;;
15553;SDS011;7878;44.632;10.942;2023-04-03T08:13:00;10.67;;;9.07;;
15553;SDS011;7878;44.632;10.942;2023-04-03T08:15:26;12.80;;;8.73;;
15553;SDS011;7878;44.632;10.942;2023-04-03T08:17:52;9.67;;;8.77;;
15553;SDS011;7878;44.632;10.942;2023-04-03T08:20:19;12.32;;;8.75;;
15553;SDS011;7878;44.632;10.942;2023-04-03T08:22:45;13.13;;;9.20;;
15553;SDS011;7878;44.632;10.942;2023-04-03T08:25:11;12.77;;;9.63;;
15553;SDS011;7878;44.632;10.942;2023-04-03T08:27:36;9.98;;;8.98;;
15553;SDS011;7878;44.632;10.942;2023-04-03T08:30:03;13.18;;;9.73;;
15553;SDS011;7878;44.632;10.942;2023-04-03T08:32:29;18.80;;;13.80;;
15553;SDS011;7878;44.632;10.942;2023-04-03T08:34:55;23.40;;;17.52;;
15553;SDS011;7878;44.632;10.942;2023-04-03T08:37:21;21.38;;;12.90;;
15553;SDS011;7878;44.632;10.942;2023-04-03T08:39:46;12.20;;;10.13;;
15553;SDS011;7878;44.632;10.942;2023-04-03T08:45:01;20.40;;;10.13;;
15553;SDS011;7878;44.632;10.942;2023-04-03T08:47:39;10.23;;;7.60;;
15553;SDS011;7878;44.632;10.942;2023-04-03T08:50:19;10.52;;;8.15;;
15553;SDS011;7878;44.632;10.942;2023-04-03T08:52:48;15.25;;;8.93;;
15553;SDS011;7878;44.632;10.942;2023-04-03T08:55:22;10.32;;;6.47;;
15553;SDS011;7878;44.632;10.942;2023-04-03T08:57:51;13.98;;;7.68;;
15553;SDS011;7878;44.632;10.942;2023-04-03T09:00:25;11.05;;;6.82;;
15553;SDS011;7878;44.632;10.942;2023-04-03T09:02:55;8.13;;;6.38;;
15553;SDS011;7878;44.632;10.942;2023-04-03T09:05:36;15.70;;;7.60;;
15553;SDS011;7878;44.632;10.942;2023-04-03T09:08:09;6.85;;;5.63;;
15553;SDS011;7878;44.632;10.942;2023-04-03T09:10:47;16.23;;;7.13;;
15553;SDS011;7878;44.632;10.942;2023-04-03T09:13:21;8.07;;;6.20;;
15553;SDS011;7878;44.632;10.942;2023-04-03T09:16:02;11.13;;;7.00;;
15553;SDS011;7878;44.632;10.942;2023-04-03T09:18:41;10.05;;;7.43;;
15553;SDS011;7878;44.632;10.942;2023-04-03T09:23:45;10.40;;;6.72;;
15553;SDS011;7878;44.632;10.942;2023-04-03T09:26:29;6.75;;;5.93;;
15553;SDS011;7878;44.632;10.942;2023-04-03T09:29:01;9.90;;;6.53;;
15553;SDS011;7878;44.632;10.942;2023-04-03T09:31:36;10.85;;;6.43;;
15553;SDS011;7878;44.632;10.942;2023-04-03T09:34:09;8.38;;;5.03;;
15553;SDS011;7878;44.632;10.942;2023-04-03T09:36:48;7.57;;;5.40;;
15553;SDS011;7878;44.632;10.942;2023-04-03T09:39:20;8.18;;;5.70;;
15553;SDS011;7878;44.632;10.942;2023-04-03T09:44:31;6.43;;;4.68;;
15553;SDS011;7878;44.632;10.942;2023-04-03T09:46:59;9.32;;;5.22;;
15553;SDS011;7878;44.632;10.942;2023-04-03T09:49:42;11.13;;;5.97;;
15553;SDS011;7878;44.632;10.942;2023-04-03T09:52:22;8.63;;;4.85;;
15553;SDS011;7878;44.632;10.942;2023-04-03T09:54:50;9.60;;;5.35;;
15553;SDS011;7878;44.632;10.942;2023-04-03T09:57:15;9.15;;;5.97;;
15553;SDS011;7878;44.632;10.942;2023-04-03T09:59:58;8.68;;;5.30;;
15553;SDS011;7878;44.632;10.942;2023-04-03T10:02:35;7.95;;;5.45;;
15553;SDS011;7878;44.632;10.942;2023-04-03T10:05:05;9.00;;;5.85;;
15553;SDS011;7878;44.632;10.942;2023-04-03T10:10:36;7.53;;;5.28;;
15553;SDS011;7878;44.632;10.942;2023-04-03T10:13:06;9.63;;;6.55;;
15553;SDS011;7878;44.632;10.942;2023-04-03T10:15:45;5.97;;;4.57;;
15553;SDS011;7878;44.632;10.942;2023-04-03T10:21:29;6.40;;;4.20;;
15553;SDS011;7878;44.632;10.942;2023-04-03T10:35:48;9.20;;;3.33;;
15553;SDS011;7878;44.632;10.942;2023-04-03T10:43:54;4.38;;;2.55;;
15553;SDS011;7878;44.632;10.942;2023-04-03T10:46:44;7.13;;;3.10;;
15553;SDS011;7878;44.632;10.942;2023-04-03T10:51:45;7.35;;;3.90;;
15553;SDS011;7878;44.632;10.942;2023-04-03T10:54:25;5.50;;;2.80;;
15553;SDS011;7878;44.632;10.942;2023-04-03T10:57:01;4.15;;;3.40;;
15553;SDS011;7878;44.632;10.942;2023-04-03T10:59:33;8.68;;;3.88;;
15553;SDS011;7878;44.632;10.942;2023-04-03T11:04:44;5.05;;;3.05;;
15553;SDS011;7878;44.632;10.942;2023-04-03T11:07:23;7.95;;;2.95;;
15553;SDS011;7878;44.632;10.942;2023-04-03T11:10:02;3.35;;;3.05;;
15553;SDS011;7878;44.632;10.942;2023-04-03T11:12:41;5.65;;;3.03;;
15553;SDS011;7878;44.632;10.942;2023-04-03T11:15:15;6.70;;;3.28;;
15553;SDS011;7878;44.632;10.942;2023-04-03T11:17:51;4.28;;;2.53;;
15553;SDS011;7878;44.632;10.942;2023-04-03T11:22:59;4.50;;;2.42;;
15553;SDS011;7878;44.632;10.942;2023-04-03T11:25:29;3.30;;;2.80;;
15553;SDS011;7878;44.632;10.942;2023-04-03T11:30:48;5.97;;;3.35;;
15553;SDS011;7878;44.632;10.942;2023-04-03T11:36:12;5.18;;;2.90;;
15553;SDS011;7878;44.632;10.942;2023-04-03T11:38:43;5.18;;;2.67;;
15553;SDS011;7878;44.632;10.942;2023-04-03T11:41:12;3.10;;;2.42;;
15553;SDS011;7878;44.632;10.942;2023-04-03T11:43:42;3.38;;;2.78;;
15553;SDS011;7878;44.632;10.942;2023-04-03T11:46:52;7.85;;;2.80;;
15553;SDS011;7878;44.632;10.942;2023-04-03T12:13:40;4.18;;;2.53;;
15553;SDS011;7878;44.632;10.942;2023-04-03T12:21:14;5.50;;;3.30;;
15553;SDS011;7878;44.632;10.942;2023-04-03T12:26:36;8.25;;;2.45;;
15553;SDS011;7878;44.632;10.942;2023-04-03T12:29:17;4.13;;;2.17;;
15553;SDS011;7878;44.632;10.942;2023-04-03T12:42:51;4.63;;;1.90;;
15553;SDS011;7878;44.632;10.942;2023-04-03T12:45:44;5.20;;;2.20;;
15553;SDS011;7878;44.632;10.942;2023-04-03T12:48:25;10.65;;;1.95;;
15553;SDS011;7878;44.632;10.942;2023-04-03T12:50:52;5.75;;;2.15;;
15553;SDS011;7878;44.632;10.942;2023-04-03T12:53:36;5.07;;;2.05;;
15553;SDS011;7878;44.632;10.942;2023-04-03T12:58:45;7.07;;;1.42;;
15553;SDS011;7878;44.632;10.942;2023-04-03T13:01:16;3.00;;;1.55;;
15553;SDS011;7878;44.632;10.942;2023-04-03T13:03:44;4.43;;;1.50;;
15553;SDS011;7878;44.632;10.942;2023-04-03T13:06:23;8.38;;;1.48;;
15553;SDS011;7878;44.632;10.942;2023-04-03T13:08:49;4.03;;;1.45;;
15553;SDS011;7878;44.632;10.942;2023-04-03T13:11:22;3.15;;;1.70;;
15553;SDS011;7878;44.632;10.942;2023-04-03T13:13:57;3.78;;;1.38;;
15553;SDS011;7878;44.632;10.942;2023-04-03T13:16:25;8.85;;;1.50;;
15553;SDS011;7878;44.632;10.942;2023-04-03T13:18:52;3.40;;;1.20;;
15553;SDS011;7878;44.632;10.942;2023-04-03T13:21:19;2.38;;;1.33;;
15553;SDS011;7878;44.632;10.942;2023-04-03T13:23:52;3.65;;;1.52;;
15553;SDS011;7878;44.632;10.942;2023-04-03T13:26:22;4.18;;;1.10;;
15553;SDS011;7878;44.632;10.942;2023-04-03T13:28:51;3.00;;;1.33;;
15553;SDS011;7878;44.632;10.942;2023-04-03T13:31:20;1.65;;;1.00;;
15553;SDS011;7878;44.632;10.942;2023-04-03T13:36:26;1.83;;;1.13;;
15553;SDS011;7878;44.632;10.942;2023-04-03T13:39:20;2.55;;;1.60;;
15553;SDS011;7878;44.632;10.942;2023-04-03T13:41:47;5.85;;;1.10;;
15553;SDS011;7878;44.632;10.942;2023-04-03T13:46:52;1.40;;;1.00;;
15553;SDS011;7878;44.632;10.942;2023-04-03T13:52:01;3.92;;;1.25;;
15553;SDS011;7878;44.632;10.942;2023-04-03T13:54:47;10.52;;;1.60;;
15553;SDS011;7878;44.632;10.942;2023-04-03T13:57:17;1.70;;;1.30;;
15553;SDS011;7878;44.632;10.942;2023-04-03T13:59:43;5.38;;;1.52;;
15553;SDS011;7878;44.632;10.942;2023-04-03T14:04:49;3.30;;;1.30;;
15553;SDS011;7878;44.632;10.942;2023-04-03T14:07:21;2.60;;;1.40;;
15553;SDS011;7878;44.632;10.942;2023-04-03T14:09:47;3.53;;;1.33;;
15553;SDS011;7878;44.632;10.942;2023-04-03T14:14:52;2.42;;;1.40;;
15553;SDS011;7878;44.632;10.942;2023-04-03T14:17:20;4.35;;;1.25;;
15553;SDS011;7878;44.632;10.942;2023-04-03T14:19:49;5.45;;;1.42;;
15553;SDS011;7878;44.632;10.942;2023-04-03T14:22:26;2.95;;;1.10;;
15553;SDS011;7878;44.632;10.942;2023-04-03T14:24:54;3.72;;;1.70;;
15553;SDS011;7878;44.632;10.942;2023-04-03T14:27:25;2.40;;;1.27;;
15553;SDS011;7878;44.632;10.942;2023-04-03T14:29:53;2.85;;;1.23;;
15553;SDS011;7878;44.632;10.942;2023-04-03T14:32:22;3.88;;;1.20;;
15553;SDS011;7878;44.632;10.942;2023-04-03T14:34:49;7.28;;;1.40;;
15553;SDS011;7878;44.632;10.942;2023-04-03T14:37:18;4.07;;;1.33;;
15553;SDS011;7878;44.632;10.942;2023-04-03T14:39:46;2.67;;;1.20;;
15553;SDS011;7878;44.632;10.942;2023-04-03T14:42:19;7.50;;;1.60;;
15553;SDS011;7878;44.632;10.942;2023-04-03T14:44:50;6.18;;;1.40;;
15553;SDS011;7878;44.632;10.942;2023-04-03T14:47:18;3.25;;;1.42;;
15553;SDS011;7878;44.632;10.942;2023-04-03T14:49:46;5.95;;;1.30;;
15553;SDS011;7878;44.632;10.942;2023-04-03T14:52:35;3.20;;;1.10;;
15553;SDS011;7878;44.632;10.942;2023-04-03T14:54:59;2.63;;;1.63;;
15553;SDS011;7878;44.632;10.942;2023-04-03T14:57:26;9.10;;;2.30;;
15553;SDS011;7878;44.632;10.942;2023-04-03T14:59:53;6.65;;;2.17;;
15553;SDS011;7878;44.632;10.942;2023-04-03T15:02:35;4.20;;;1.40;;
15553;SDS011;7878;44.632;10.942;2023-04-03T15:05:03;2.28;;;1.48;;
15553;SDS011;7878;44.632;10.942;2023-04-03T15:07:33;4.45;;;1.60;;
15553;SDS011;7878;44.632;10.942;2023-04-03T15:10:15;2.53;;;1.20;;
15553;SDS011;7878;44.632;10.942;2023-04-03T15:12:44;3.20;;;1.38;;
15553;SDS011;7878;44.632;10.942;2023-04-03T15:15:11;3.03;;;1.65;;
15553;SDS011;7878;44.632;10.942;2023-04-03T15:17:38;2.22;;;1.50;;
15553;SDS011;7878;44.632;10.942;2023-04-03T15:20:09;1.65;;;1.20;;
15553;SDS011;7878;44.632;10.942;2023-04-03T15:22:41;6.35;;;1.38;;
15553;SDS011;7878;44.632;10.942;2023-04-03T15:25:07;3.40;;;1.45;;
15553;SDS011;7878;44.632;10.942;2023-04-03T15:27:34;5.60;;;1.77;;
15553;SDS011;7878;44.632;10.942;2023-04-03T15:30:00;3.70;;;1.20;;
15553;SDS011;7878;44.632;10.942;2023-04-03T15:32:26;4.53;;;1.25;;
15553;SDS011;7878;44.632;10.942;2023-04-03T15:34:52;3.17;;;1.67;;
15553;SDS011;7878;44.632;10.942;2023-04-03T15:37:19;1.57;;;1.20;;
15553;SDS011;7878;44.632;10.942;2023-04-03T15:39:44;2.80;;;1.20;;
15553;SDS011;7878;44.632;10.942;2023-04-03T15:42:10;3.37;;;1.30;;
15553;SDS011;7878;44.632;10.942;2023-04-03T15:44:37;2.97;;;1.27;;
15553;SDS011;7878;44.632;10.942;2023-04-03T15:47:03;2.78;;;1.05;;
15553;SDS011;7878;44.632;10.942;2023-04-03T15:49:29;7.97;;;1.23;;
15553;SDS011;7878;44.632;10.942;2023-04-03T15:51:57;8.93;;;1.73;;
15553;SDS011;7878;44.632;10.942;2023-04-03T15:54:23;4.90;;;1.50;;
15553;SDS011;7878;44.632;10.942;2023-04-03T15:56:50;7.70;;;1.47;;
15553;SDS011;7878;44.632;10.942;2023-04-03T15:59:16;2.60;;;1.20;;
15553;SDS011;7878;44.632;10.942;2023-04-03T16:01:42;4.37;;;1.57;;
15553;SDS011;7878;44.632;10.942;2023-04-03T16:04:08;1.77;;;1.10;;
15553;SDS011;7878;44.632;10.942;2023-04-03T16:06:35;4.40;;;0.90;;
15553;SDS011;7878;44.632;10.942;2023-04-03T16:09:02;3.50;;;1.17;;
15553;SDS011;7878;44.632;10.942;2023-04-03T16:11:29;5.37;;;1.33;;
15553;SDS011;7878;44.632;10.942;2023-04-03T16:13:55;8.83;;;1.27;;
15553;SDS011;7878;44.632;10.942;2023-04-03T16:16:21;4.53;;;1.10;;
15553;SDS011;7878;44.632;10.942;2023-04-03T16:18:48;1.53;;;1.27;;
15553;SDS011;7878;44.632;10.942;2023-04-03T16:21:14;2.47;;;1.40;;
15553;SDS011;7878;44.632;10.942;2023-04-03T16:23:42;8.37;;;1.87;;
15553;SDS011;7878;44.632;10.942;2023-04-03T16:26:08;1.83;;;1.47;;
15553;SDS011;7878;44.632;10.942;2023-04-03T16:28:34;3.43;;;1.30;;
15553;SDS011;7878;44.632;10.942;2023-04-03T16:31:00;2.70;;;1.20;;
15553;SDS011;7878;44.632;10.942;2023-04-03T16:33:27;5.23;;;1.00;;
15553;SDS011;7878;44.632;10.942;2023-04-03T16:35:53;2.63;;;1.30;;
15553;SDS011;7878;44.632;10.942;2023-04-03T16:38:19;5.60;;;1.70;;
15553;SDS011;7878;44.632;10.942;2023-04-03T16:40:47;5.27;;;1.27;;
15553;SDS011;7878;44.632;10.942;2023-04-03T16:43:13;1.43;;;1.20;;